createdAt,value
2018-09-02T00:03:33.793Z,88
2018-09-02T00:09:02.344Z,88
2018-09-02T00:14:36.997Z,88
2018-09-02T00:20:06.533Z,88
2018-09-02T00:25:36.102Z,89
2018-09-02T00:31:00.956Z,89
2018-09-02T00:36:30.259Z,89
2018-09-02T00:42:00.069Z,89
2018-09-02T00:47:29.637Z,88
2018-09-02T00:52:58.932Z,89
2018-09-02T00:58:27.519Z,89
2018-09-02T01:03:57.063Z,89
2018-09-02T01:09:26.669Z,89
2018-09-02T01:14:55.208Z,89
2018-09-02T01:20:24.784Z,89
2018-09-02T01:25:53.584Z,89
2018-09-02T01:31:28.332Z,89
2018-09-02T01:36:52.470Z,89
2018-09-02T01:42:26.050Z,89
2018-09-02T01:47:49.550Z,90
2018-09-02T01:53:19.354Z,90
2018-09-02T01:58:48.625Z,90
2018-09-02T02:04:17.360Z,90
2018-09-02T02:09:45.682Z,90
2018-09-02T02:15:15.357Z,90
2018-09-02T02:20:43.580Z,90
2018-09-02T02:26:13.286Z,90
2018-09-02T02:31:41.787Z,90
2018-09-02T02:37:11.072Z,90
2018-09-02T02:42:39.427Z,90
2018-09-02T02:48:08.858Z,90
2018-09-02T02:53:38.305Z,90
2018-09-02T02:59:06.979Z,90
2018-09-02T02:59:08.570Z,90
2018-09-02T03:04:35.182Z,90
2018-09-02T03:10:03.564Z,90
2018-09-02T03:15:32.213Z,90
2018-09-02T03:21:01.356Z,90
2018-09-02T03:26:29.749Z,90
2018-09-02T03:31:58.407Z,90
2018-09-02T03:37:26.516Z,90
2018-09-02T03:42:54.864Z,90
2018-09-02T03:48:24.749Z,90
2018-09-02T03:53:52.919Z,90
2018-09-02T03:59:21.157Z,90
2018-09-02T04:04:50.791Z,90
2018-09-02T04:10:24.268Z,90
2018-09-02T04:15:52.971Z,90
2018-09-02T04:21:16.554Z,90
2018-09-02T04:26:44.960Z,90
2018-09-02T04:32:14.154Z,90
2018-09-02T04:37:48.651Z,90
2018-09-02T04:43:11.589Z,90
2018-09-02T04:48:40.154Z,90
2018-09-02T04:54:08.192Z,90
2018-09-02T04:59:37.513Z,90
2018-09-02T05:05:07.077Z,90
2018-09-02T05:10:36.424Z,90
2018-09-02T05:16:04.421Z,90
2018-09-02T05:21:32.730Z,90
2018-09-02T05:27:02.315Z,90
2018-09-02T05:32:31.631Z,90
2018-09-02T05:37:59.692Z,90
2018-09-02T05:43:28.200Z,90
2018-09-02T05:48:56.521Z,89
2018-09-02T05:54:24.802Z,89
2018-09-02T05:59:54.358Z,89
2018-09-02T06:05:27.464Z,90
2018-09-02T06:10:52.159Z,90
2018-09-02T06:16:20.635Z,90
2018-09-02T06:16:20.716Z,90
2018-09-02T06:21:48.766Z,90
2018-09-02T06:27:17.474Z,90
2018-09-02T06:32:45.715Z,90
2018-09-02T06:38:14.604Z,90
2018-09-02T06:43:43.740Z,90
2018-09-02T06:49:13.642Z,90
2018-09-02T06:54:42.777Z,90
2018-09-02T07:00:16.883Z,90
2018-09-02T07:05:44.881Z,90
2018-09-02T07:11:14.464Z,90
2018-09-02T07:16:38.091Z,90
2018-09-02T07:22:07.948Z,90
2018-09-02T07:27:38.773Z,90
2018-09-02T07:27:42.580Z,90
2018-09-02T07:33:07.415Z,90
2018-09-02T07:38:37.266Z,90
2018-09-02T07:38:41.572Z,90
2018-09-02T07:44:05.213Z,90
2018-09-02T07:49:34.796Z,90
2018-09-02T07:55:09.480Z,90
2018-09-02T08:00:33.373Z,90
2018-09-02T08:06:01.789Z,90
2018-09-02T08:11:31.697Z,90
2018-09-02T08:17:06.161Z,90
2018-09-02T08:22:34.925Z,90
2018-09-02T08:28:04.621Z,90
2018-09-02T08:33:29.623Z,90
2018-09-02T08:39:04.005Z,90
2018-09-02T08:44:33.694Z,90
2018-09-02T08:49:57.688Z,89
2018-09-02T08:49:58.750Z,89
2018-09-02T08:55:26.229Z,89
2018-09-02T09:00:55.205Z,89
2018-09-02T09:06:24.676Z,89
2018-09-02T09:11:58.771Z,89
2018-09-02T09:17:23.553Z,89
2018-09-02T09:22:57.416Z,88
2018-09-02T09:28:26.217Z,88
2018-09-02T09:33:49.798Z,88
2018-09-02T09:39:19.718Z,88
2018-09-02T09:44:49.551Z,88
2018-09-02T09:50:24.525Z,88
2018-09-02T09:55:49.876Z,88
2018-09-02T10:01:19.226Z,88
2018-09-02T10:01:20.290Z,88
2018-09-02T10:06:49.108Z,87
2018-09-02T10:12:19.284Z,87
2018-09-02T10:17:48.990Z,87
2018-09-02T10:23:19.167Z,87
2018-09-02T10:28:54.116Z,87
2018-09-02T10:34:22.743Z,88
2018-09-02T10:39:47.877Z,88
2018-09-02T10:45:17.620Z,88
2018-09-02T10:50:52.380Z,88
2018-09-02T10:56:17.556Z,88
2018-09-02T11:01:52.307Z,88
2018-09-02T11:07:21.257Z,88
2018-09-02T11:12:49.705Z,87
2018-09-02T11:18:18.527Z,87
2018-09-02T11:23:42.620Z,87
2018-09-02T11:29:12.482Z,87
2018-09-02T11:34:46.338Z,87
2018-09-02T11:40:10.950Z,87
2018-09-02T11:45:41.095Z,87
2018-09-02T11:51:10.618Z,87
2018-09-02T11:56:39.517Z,87
2018-09-02T12:02:08.396Z,87
2018-09-02T12:07:37.566Z,86
2018-09-02T12:13:06.176Z,86
2018-09-02T12:18:35.376Z,86
2018-09-02T12:24:04.010Z,86
2018-09-02T12:29:33.910Z,86
2018-09-02T12:35:03.104Z,87
2018-09-02T12:40:32.768Z,87
2018-09-02T12:46:02.925Z,87
2018-09-02T12:51:37.887Z,86
2018-09-02T12:57:02.559Z,86
2018-09-02T13:02:31.722Z,87
2018-09-02T13:08:06.396Z,86
2018-09-02T13:13:31.751Z,86
2018-09-02T13:13:32.623Z,86
2018-09-02T13:19:01.315Z,86
2018-09-02T13:24:31.206Z,86
2018-09-02T13:30:00.392Z,86
2018-09-02T13:35:29.086Z,86
2018-09-02T13:41:03.344Z,86
2018-09-02T13:46:27.973Z,86
2018-09-02T13:51:57.180Z,86
2018-09-02T13:57:26.148Z,86
2018-09-02T14:02:56.342Z,85
2018-09-02T14:08:26.089Z,85
2018-09-02T14:13:54.852Z,85
2018-09-02T14:19:24.783Z,85
2018-09-02T14:25:00.098Z,85
2018-09-02T14:30:24.042Z,85
2018-09-02T14:35:53.748Z,85
2018-09-02T14:41:28.032Z,85
2018-09-02T14:46:51.736Z,85
2018-09-02T14:52:25.661Z,85
2018-09-02T14:57:50.744Z,85
2018-09-02T15:03:25.618Z,85
2018-09-02T15:08:54.616Z,85
2018-09-02T15:14:23.902Z,85
2018-09-02T15:19:48.863Z,85
2018-09-02T15:25:17.546Z,85
2018-09-02T15:30:46.465Z,85
2018-09-02T15:30:47.173Z,85
2018-09-02T15:36:15.800Z,85
2018-09-02T15:41:45.845Z,85
2018-09-02T15:47:14.425Z,85
2018-09-02T15:52:48.615Z,85
2018-09-02T15:58:12.543Z,85
2018-09-02T16:03:43.102Z,85
2018-09-02T16:03:47.479Z,85
2018-09-02T16:09:11.445Z,85
2018-09-02T16:09:11.769Z,85
2018-09-02T16:14:40.182Z,85
2018-09-02T16:20:10.250Z,85
2018-09-02T16:25:39.281Z,85
2018-09-02T16:31:13.994Z,85
2018-09-02T16:36:38.916Z,85
2018-09-02T16:42:07.898Z,85
2018-09-02T16:47:37.027Z,85
2018-09-02T16:53:05.711Z,85
2018-09-02T16:58:40.834Z,85
2018-09-02T17:04:04.869Z,86
2018-09-02T17:09:34.558Z,86
2018-09-02T17:15:04.699Z,86
2018-09-02T17:20:34.542Z,86
2018-09-02T17:26:03.274Z,86
2018-09-02T17:31:33.153Z,86
2018-09-02T17:37:01.993Z,86
2018-09-02T17:42:30.989Z,86
2018-09-02T17:48:05.804Z,86
2018-09-02T17:53:30.683Z,87
2018-09-02T17:59:05.866Z,87
2018-09-02T18:04:29.833Z,87
2018-09-02T18:10:03.572Z,87
2018-09-02T18:15:27.234Z,87
2018-09-02T18:20:56.094Z,87
2018-09-02T18:26:25.972Z,87
2018-09-02T18:31:54.850Z,87
2018-09-02T18:37:24.697Z,87
2018-09-02T18:42:53.544Z,88
2018-09-02T18:48:23.438Z,88
2018-09-02T18:53:53.380Z,88
2018-09-02T18:59:23.366Z,88
2018-09-02T19:04:52.984Z,88
2018-09-02T19:10:22.861Z,88
2018-09-02T19:15:52.629Z,88
2018-09-02T19:21:26.501Z,88
2018-09-02T19:26:52.542Z,88
2018-09-02T19:32:20.509Z,89
2018-09-02T19:37:54.338Z,89
2018-09-02T19:43:19.110Z,89
2018-09-02T19:48:46.856Z,89
2018-09-02T19:48:47.251Z,89
2018-09-02T19:54:23.878Z,89
2018-09-02T19:59:50.501Z,89
2018-09-02T20:05:20.047Z,89
2018-09-02T20:10:44.851Z,89
2018-09-02T20:16:14.308Z,89
2018-09-02T20:21:49.047Z,89
2018-09-02T20:27:13.346Z,89
2018-09-02T20:32:47.266Z,90
2018-09-02T20:38:11.937Z,90
2018-09-02T20:43:41.736Z,90
2018-09-02T20:49:15.862Z,90
2018-09-02T21:05:40.965Z,90
2018-09-02T21:11:09.981Z,90
2018-09-02T21:16:39.690Z,90
2018-09-02T21:22:13.412Z,90
2018-09-02T21:27:37.112Z,90
2018-09-02T21:33:07.021Z,90
2018-09-02T21:38:35.893Z,90
2018-09-02T21:44:05.483Z,91
2018-09-02T21:49:35.181Z,91
2018-09-02T21:55:09.973Z,91
2018-09-02T22:00:34.851Z,91
2018-09-02T22:06:04.505Z,91
2018-09-02T22:11:39.263Z,91
2018-09-02T22:17:03.357Z,91
2018-09-02T22:22:31.857Z,91
2018-09-02T22:28:01.898Z,91
2018-09-02T22:33:31.387Z,91
2018-09-02T22:39:06.505Z,91
2018-09-02T22:44:34.977Z,91
2018-09-02T22:49:59.784Z,91
2018-09-02T22:55:34.215Z,91
2018-09-02T23:00:58.363Z,91
2018-09-02T23:06:27.126Z,91
2018-09-02T23:06:29.472Z,91
2018-09-02T23:11:56.466Z,91
2018-09-02T23:12:00.924Z,91
2018-09-02T23:17:30.712Z,92
2018-09-02T23:22:54.458Z,92
2018-09-02T23:28:23.612Z,92
2018-09-02T23:33:52.063Z,92
2018-09-02T23:39:25.871Z,92
2018-09-02T23:44:50.670Z,92
2018-09-02T23:50:20.422Z,92
2018-09-02T23:55:49.226Z,92
2018-09-02T23:55:49.737Z,92
